sensor_id;sensor_type;location;lat;lon;timestamp;P1;durP1;ratioP1;P2;durP2;ratioP2
50563;SDS011;36514;52.590;21.448;2023-02-28T00:02:33;17.65;;;8.07;;
50563;SDS011;36514;52.590;21.448;2023-02-28T00:12:31;16.33;;;8.41;;
50563;SDS011;36514;52.590;21.448;2023-02-28T00:22:23;17.70;;;10.02;;
50563;SDS011;36514;52.590;21.448;2023-02-28T00:32:15;18.15;;;9.55;;
50563;SDS011;36514;52.590;21.448;2023-02-28T00:42:12;19.59;;;11.90;;
50563;SDS011;36514;52.590;21.448;2023-02-28T00:52:04;22.67;;;10.82;;
50563;SDS011;36514;52.590;21.448;2023-02-28T01:02:01;17.72;;;10.44;;
50563;SDS011;36514;52.590;21.448;2023-02-28T01:11:53;16.95;;;9.90;;
50563;SDS011;36514;52.590;21.448;2023-02-28T01:21:50;20.97;;;10.65;;
50563;SDS011;36514;52.590;21.448;2023-02-28T01:31:46;18.83;;;10.23;;
50563;SDS011;36514;52.590;21.448;2023-02-28T01:41:42;18.14;;;10.97;;
50563;SDS011;36514;52.590;21.448;2023-02-28T01:51:42;17.64;;;9.67;;
50563;SDS011;36514;52.590;21.448;2023-02-28T02:01:38;16.92;;;9.85;;
50563;SDS011;36514;52.590;21.448;2023-02-28T02:11:29;15.95;;;9.15;;
50563;SDS011;36514;52.590;21.448;2023-02-28T02:21:37;17.26;;;8.83;;
50563;SDS011;36514;52.590;21.448;2023-02-28T02:41:36;10.70;;;6.25;;
50563;SDS011;36514;52.590;21.448;2023-02-28T02:51:35;15.77;;;8.31;;
50563;SDS011;36514;52.590;21.448;2023-02-28T03:01:33;11.14;;;7.20;;
50563;SDS011;36514;52.590;21.448;2023-02-28T03:11:25;15.75;;;8.55;;
50563;SDS011;36514;52.590;21.448;2023-02-28T03:21:28;12.80;;;6.95;;
50563;SDS011;36514;52.590;21.448;2023-02-28T03:31:27;18.57;;;7.56;;
50563;SDS011;36514;52.590;21.448;2023-02-28T03:41:25;13.57;;;7.73;;
50563;SDS011;36514;52.590;21.448;2023-02-28T03:51:23;15.35;;;8.13;;
50563;SDS011;36514;52.590;21.448;2023-02-28T04:01:36;16.74;;;7.85;;
50563;SDS011;36514;52.590;21.448;2023-02-28T04:11:34;5.70;;;4.70;;
50563;SDS011;36514;52.590;21.448;2023-02-28T04:21:26;10.68;;;6.95;;
50563;SDS011;36514;52.590;21.448;2023-02-28T04:31:23;12.48;;;7.50;;
50563;SDS011;36514;52.590;21.448;2023-02-28T07:43:39;25.00;;;10.10;;
50563;SDS011;36514;52.590;21.448;2023-02-28T07:53:37;18.77;;;12.20;;
50563;SDS011;36514;52.590;21.448;2023-02-28T08:03:31;10.90;;;6.88;;
50563;SDS011;36514;52.590;21.448;2023-02-28T08:13:24;15.60;;;8.95;;
50563;SDS011;36514;52.590;21.448;2023-02-28T08:23:35;20.85;;;13.66;;
50563;SDS011;36514;52.590;21.448;2023-02-28T08:33:47;12.43;;;7.82;;
50563;SDS011;36514;52.590;21.448;2023-02-28T08:43:55;14.13;;;8.27;;
50563;SDS011;36514;52.590;21.448;2023-02-28T08:54:00;12.77;;;8.43;;
50563;SDS011;36514;52.590;21.448;2023-02-28T09:04:42;10.67;;;7.36;;
50563;SDS011;36514;52.590;21.448;2023-02-28T09:15:07;7.20;;;4.57;;
50563;SDS011;36514;52.590;21.448;2023-02-28T09:25:21;9.49;;;6.94;;
50563;SDS011;36514;52.590;21.448;2023-02-28T09:36:37;10.17;;;7.57;;
50563;SDS011;36514;52.590;21.448;2023-02-28T09:46:33;11.56;;;7.46;;
50563;SDS011;36514;52.590;21.448;2023-02-28T09:56:29;8.18;;;5.43;;
50563;SDS011;36514;52.590;21.448;2023-02-28T10:06:38;8.66;;;6.67;;
50563;SDS011;36514;52.590;21.448;2023-02-28T10:17:25;14.20;;;7.22;;
50563;SDS011;36514;52.590;21.448;2023-02-28T10:28:32;7.50;;;5.88;;
50563;SDS011;36514;52.590;21.448;2023-02-28T10:39:33;9.24;;;7.63;;
50563;SDS011;36514;52.590;21.448;2023-02-28T10:49:33;11.19;;;7.75;;
50563;SDS011;36514;52.590;21.448;2023-02-28T10:59:30;11.82;;;5.82;;
50563;SDS011;36514;52.590;21.448;2023-02-28T11:09:35;9.15;;;5.10;;
50563;SDS011;36514;52.590;21.448;2023-02-28T11:19:45;9.95;;;7.44;;
50563;SDS011;36514;52.590;21.448;2023-02-28T11:29:52;9.03;;;7.62;;
50563;SDS011;36514;52.590;21.448;2023-02-28T11:39:58;9.86;;;7.78;;
50563;SDS011;36514;52.590;21.448;2023-02-28T12:10:25;8.68;;;6.64;;
50563;SDS011;36514;52.590;21.448;2023-02-28T12:30:31;10.38;;;7.28;;
50563;SDS011;36514;52.590;21.448;2023-02-28T12:50:56;11.47;;;6.87;;
50563;SDS011;36514;52.590;21.448;2023-02-28T13:10:57;8.45;;;6.40;;
50563;SDS011;36514;52.590;21.448;2023-02-28T13:20:48;6.55;;;5.95;;
50563;SDS011;36514;52.590;21.448;2023-02-28T13:40:48;10.85;;;8.36;;
50563;SDS011;36514;52.590;21.448;2023-02-28T13:50:38;18.70;;;7.38;;
50563;SDS011;36514;52.590;21.448;2023-02-28T14:00:52;9.68;;;8.32;;
50563;SDS011;36514;52.590;21.448;2023-02-28T14:10:50;13.28;;;7.76;;
50563;SDS011;36514;52.590;21.448;2023-02-28T14:20:49;14.58;;;8.92;;
50563;SDS011;36514;52.590;21.448;2023-02-28T14:41:00;26.27;;;15.64;;
50563;SDS011;36514;52.590;21.448;2023-02-28T14:50:57;10.05;;;8.00;;
50563;SDS011;36514;52.590;21.448;2023-02-28T15:00:54;14.08;;;8.17;;
50563;SDS011;36514;52.590;21.448;2023-02-28T15:10:44;10.90;;;8.05;;
50563;SDS011;36514;52.590;21.448;2023-02-28T15:20:35;12.02;;;7.40;;
50563;SDS011;36514;52.590;21.448;2023-02-28T15:30:29;19.91;;;10.84;;
50563;SDS011;36514;52.590;21.448;2023-02-28T15:40:28;14.22;;;9.16;;
50563;SDS011;36514;52.590;21.448;2023-02-28T15:50:20;36.02;;;15.32;;
50563;SDS011;36514;52.590;21.448;2023-02-28T16:00:22;17.04;;;10.50;;
50563;SDS011;36514;52.590;21.448;2023-02-28T16:10:23;32.04;;;15.76;;
50563;SDS011;36514;52.590;21.448;2023-02-28T16:20:25;81.23;;;30.47;;
50563;SDS011;36514;52.590;21.448;2023-02-28T16:30:56;77.18;;;37.84;;
50563;SDS011;36514;52.590;21.448;2023-02-28T16:41:26;149.88;;;66.36;;
50563;SDS011;36514;52.590;21.448;2023-02-28T16:51:17;124.25;;;50.10;;
50563;SDS011;36514;52.590;21.448;2023-02-28T17:01:19;159.28;;;68.39;;
50563;SDS011;36514;52.590;21.448;2023-02-28T17:11:15;228.44;;;95.18;;
50563;SDS011;36514;52.590;21.448;2023-02-28T17:21:18;383.51;;;158.11;;
